Archival Weather

Chicago O'Hare International

Chicago, Illinois (KORD)

Report from: Saturday, March 5, 2022 11:06 PM CST
Current time: Saturday, February 4, 2023 10:17 PM CST

Current weather
Weather history
Weather forecast

Present weatherThunderstorm
Temperature17.2°C (63.0°F)
Dew point12.8°C (55.0°F)
Winds 24 kts (12.3 m/s, 27.6 mph) South-Southwest (210°)
Wind gusts 42 kts (21.6 m/s, 48.3 mph)
Peak wind 42 kts (21.6 m/s, 48.3 mph) South-Southwest (210°) at 23:06
Visibility10 mi. (16.1 km)
Clouds Ceiling: Broken clouds 2,400 ft. (732 m)
Broken clouds with cumulonimbus 2,900 ft. (884 m)
Overcast 3,700 ft. (1,128 m)
Altimeter29.62 in.Hg (1003 mB)
Precip. events Thunderstorm began 11:05 PM
Relative humidity75 %
Density altitude811 ft. (247 m)
Remarks System requires maintenance
Automated weather observing station with precipitation discriminator
Lightning observed
Lightning observed: intra cloud, cloud to cloud
Distant southwest northwest occasional southwest northwest thunderstorm southwest northwest moving east
Flight conditions Marginal Visual Meteorological Conditions
Raw dataKORD 060506Z 21024G42KT 10SM TS BKN024 BKN029CB OVC037 17/13 A2962 RMK AO2 PK WND 21042/0506 LTG DSNT SW-NW TSB05 OCNL LTGICCC SW-NW TS SW-NW MOV E T01720128 $
An unhandled exception has occurred. See browser dev tools for details. Reload 🗙